createdAt,value
2018-08-24T00:03:37.740Z,80.60
2018-08-24T00:08:40.748Z,81.30
2018-08-24T00:13:43.780Z,82.30
2018-08-24T00:18:46.834Z,83.40
2018-08-24T00:23:49.868Z,83.90
2018-08-24T00:28:52.900Z,84.00
2018-08-24T00:33:55.927Z,84.60
2018-08-24T00:38:58.990Z,85.10
2018-08-24T00:44:02.027Z,85.40
2018-08-24T00:49:05.060Z,85.90
2018-08-24T00:54:08.147Z,86.10
2018-08-24T00:59:11.178Z,86.40
2018-08-24T01:04:17.443Z,87.40
2018-08-24T01:09:20.527Z,88.60
2018-08-24T01:14:23.580Z,88.60
2018-08-24T01:19:26.622Z,89.30
2018-08-24T01:24:31.486Z,90.00
2018-08-24T01:29:36.232Z,90.00
2018-08-24T01:34:39.284Z,90.30
2018-08-24T01:39:42.617Z,90.40
2018-08-24T01:44:45.723Z,90.40
2018-08-24T01:49:48.743Z,90.50
2018-08-24T01:54:51.836Z,90.60
2018-08-24T01:59:54.873Z,90.80
2018-08-24T02:04:57.934Z,91.10
2018-08-24T02:10:00.954Z,91.30
2018-08-24T02:15:03.981Z,91.30
2018-08-24T02:20:12.354Z,91.30
2018-08-24T02:25:15.508Z,91.20
2018-08-24T02:30:18.556Z,91.10
2018-08-24T02:35:21.581Z,91.20
2018-08-24T02:40:24.620Z,91.60
2018-08-24T02:45:27.710Z,91.80
2018-08-24T02:50:30.744Z,91.90
2018-08-24T02:55:34.160Z,92.30
2018-08-24T03:00:37.225Z,92.30
2018-08-24T03:05:40.466Z,92.90
2018-08-24T03:10:43.349Z,93.00
2018-08-24T03:15:46.462Z,93.20
2018-08-24T03:20:49.535Z,93.30
2018-08-24T03:25:52.703Z,93.10
2018-08-24T03:30:55.769Z,93.20
2018-08-24T03:36:00.404Z,93.40
2018-08-24T03:41:03.531Z,94.00
2018-08-24T03:46:06.626Z,94.10
2018-08-24T03:51:09.688Z,94.80
2018-08-24T03:56:12.819Z,94.70
2018-08-24T04:01:15.873Z,94.50
2018-08-24T04:06:18.925Z,94.70
2018-08-24T04:11:21.967Z,94.80
2018-08-24T04:16:25.000Z,94.70
2018-08-24T04:21:28.055Z,94.50
2018-08-24T04:26:31.091Z,94.40
2018-08-24T04:31:34.140Z,94.40
2018-08-24T04:36:37.184Z,94.20
2018-08-24T04:41:40.883Z,94.40
2018-08-24T04:46:43.936Z,93.90
2018-08-24T04:51:46.973Z,93.80
2018-08-24T04:56:50.016Z,93.60
2018-08-24T05:01:53.024Z,93.60
2018-08-24T05:06:56.067Z,93.90
2018-08-24T05:11:59.107Z,93.40
2018-08-24T05:17:02.174Z,93.30
2018-08-24T05:22:05.576Z,93.60
2018-08-24T05:27:08.712Z,93.70
2018-08-24T05:32:11.731Z,93.80
2018-08-24T05:37:14.765Z,93.80
2018-08-24T05:42:17.813Z,93.60
2018-08-24T05:47:20.840Z,93.70
2018-08-24T05:52:23.865Z,93.70
2018-08-24T05:57:26.887Z,93.40
2018-08-24T06:02:29.963Z,93.30
2018-08-24T06:07:32.993Z,93.40
2018-08-24T06:12:36.032Z,93.80
2018-08-24T06:17:44.667Z,93.40
2018-08-24T06:22:47.752Z,93.50
2018-08-24T06:27:50.781Z,93.20
2018-08-24T06:32:53.861Z,92.90
2018-08-24T06:37:56.876Z,93.00
2018-08-24T06:42:59.925Z,92.90
2018-08-24T06:48:03.048Z,92.70
2018-08-24T06:53:06.187Z,93.00
2018-08-24T06:58:09.156Z,92.10
2018-08-24T07:03:12.307Z,92.40
2018-08-24T07:08:15.360Z,92.00
2018-08-24T07:13:18.430Z,91.70
2018-08-24T07:18:21.463Z,92.00
2018-08-24T07:23:24.499Z,92.30
2018-08-24T07:28:27.532Z,92.10
2018-08-24T07:33:30.609Z,92.10
2018-08-24T07:38:33.798Z,92.10
2018-08-24T07:43:36.829Z,91.90
2018-08-24T07:48:39.832Z,91.80
2018-08-24T07:53:42.880Z,91.10
2018-08-24T07:58:45.903Z,91.10
2018-08-24T08:03:48.961Z,91.20
2018-08-24T08:08:51.980Z,90.80
2018-08-24T08:13:55.028Z,90.80
2018-08-24T08:18:58.084Z,91.60
2018-08-24T08:24:01.175Z,92.50
2018-08-24T08:29:04.208Z,93.20
2018-08-24T08:34:07.407Z,93.10
2018-08-24T08:39:12.023Z,92.70
2018-08-24T08:44:15.479Z,92.70
2018-08-24T08:49:18.528Z,92.50
2018-08-24T08:54:21.791Z,92.60
2018-08-24T08:59:25.015Z,92.20
2018-08-24T09:04:28.071Z,91.20
2018-08-24T09:09:31.135Z,90.10
2018-08-24T09:14:34.624Z,90.00
2018-08-24T09:19:44.477Z,89.00
2018-08-24T09:24:52.964Z,87.30
2018-08-24T09:29:57.702Z,86.90
2018-08-24T09:35:00.744Z,86.60
2018-08-24T09:40:04.049Z,83.20
2018-08-24T09:45:07.169Z,83.40
2018-08-24T09:50:15.548Z,84.60
2018-08-24T09:55:18.809Z,86.00
2018-08-24T10:00:24.766Z,83.70
2018-08-24T10:05:33.351Z,83.00
2018-08-24T10:10:36.387Z,85.80
2018-08-24T10:15:39.473Z,85.30
2018-08-24T10:20:42.516Z,85.10
2018-08-24T10:25:45.584Z,85.70
2018-08-24T10:30:48.938Z,88.00
2018-08-24T10:35:51.991Z,89.70
2018-08-24T10:40:55.093Z,90.40
2018-08-24T10:45:59.359Z,90.30
2018-08-24T10:51:02.374Z,89.70
2018-08-24T10:56:05.637Z,85.70
2018-08-24T11:01:08.584Z,85.90
2018-08-24T11:06:11.634Z,86.20
2018-08-24T11:11:14.646Z,84.60
2018-08-24T11:16:17.745Z,85.20
2018-08-24T11:21:20.980Z,84.90
2018-08-24T11:26:24.973Z,79.10
2018-08-24T11:31:28.012Z,77.10
2018-08-24T11:36:31.037Z,77.30
2018-08-24T11:41:35.294Z,78.10
2018-08-24T11:46:38.312Z,79.50
2018-08-24T11:51:41.491Z,77.30
2018-08-24T11:56:44.525Z,78.00
2018-08-24T12:01:47.576Z,77.40
2018-08-24T12:06:50.596Z,75.90
2018-08-24T12:11:53.653Z,71.70
2018-08-24T12:16:56.725Z,69.40
2018-08-24T12:21:59.771Z,68.00
2018-08-24T12:27:02.839Z,67.60
2018-08-24T12:32:06.312Z,63.90
2018-08-24T12:37:11.592Z,63.40
2018-08-24T12:42:14.669Z,63.70
2018-08-24T12:47:17.679Z,60.00
2018-08-24T12:52:20.696Z,59.10
2018-08-24T12:57:27.429Z,59.50
2018-08-24T13:02:30.459Z,57.50
2018-08-24T13:07:33.531Z,59.00
2018-08-24T13:12:36.593Z,60.10
2018-08-24T13:17:39.624Z,62.20
2018-08-24T13:22:42.713Z,63.40
2018-08-24T13:27:51.161Z,63.20
2018-08-24T13:32:54.290Z,64.10
2018-08-24T13:37:57.336Z,65.10
2018-08-24T13:43:00.604Z,66.50
2018-08-24T13:48:03.964Z,65.10
2018-08-24T13:53:07.004Z,63.90
2018-08-24T13:58:10.041Z,63.70
2018-08-24T14:03:13.066Z,59.90
2018-08-24T14:08:16.086Z,60.30
2018-08-24T14:13:19.352Z,59.10
2018-08-24T14:18:22.376Z,60.10
2018-08-24T14:23:25.486Z,59.60
2018-08-24T14:28:28.504Z,58.70
2018-08-24T14:33:31.546Z,58.00
2018-08-24T14:38:34.601Z,57.20
2018-08-24T14:43:37.772Z,56.50
2018-08-24T14:48:41.009Z,55.30
2018-08-24T14:53:44.093Z,53.60
2018-08-24T14:58:47.138Z,52.20
2018-08-24T15:03:50.183Z,51.40
2018-08-24T15:08:53.239Z,51.00
2018-08-24T15:13:56.317Z,52.30
2018-08-24T15:18:59.275Z,50.30
2018-08-24T15:24:02.291Z,49.60
2018-08-24T15:29:05.342Z,49.80
2018-08-24T15:34:08.478Z,51.00
2018-08-24T15:39:12.725Z,51.90
2018-08-24T15:44:15.764Z,52.80
2018-08-24T15:49:18.778Z,53.80
2018-08-24T15:54:21.945Z,54.30
2018-08-24T15:59:25.288Z,55.20
2018-08-24T16:04:28.311Z,55.60
2018-08-24T16:09:31.337Z,56.30
2018-08-24T16:14:34.387Z,56.80
2018-08-24T16:19:37.437Z,57.20
2018-08-24T16:24:40.494Z,57.50
2018-08-24T16:29:43.541Z,57.90
2018-08-24T16:34:46.629Z,58.40
2018-08-24T16:39:49.688Z,58.30
2018-08-24T16:44:52.759Z,58.60
2018-08-24T16:49:55.820Z,58.90
2018-08-24T16:54:58.881Z,58.80
2018-08-24T17:00:01.985Z,58.80
2018-08-24T17:05:05.420Z,58.30
2018-08-24T17:10:09.016Z,58.10
2018-08-24T17:15:12.127Z,57.10
2018-08-24T17:20:15.174Z,55.40
2018-08-24T17:25:18.214Z,55.70
2018-08-24T17:30:21.241Z,54.90
2018-08-24T17:35:24.267Z,53.50
2018-08-24T17:40:27.363Z,54.00
2018-08-24T17:45:30.402Z,54.30
2018-08-24T17:50:33.433Z,54.70
2018-08-24T17:55:36.576Z,55.20
2018-08-24T18:00:39.758Z,55.80
2018-08-24T18:05:42.818Z,56.40
2018-08-24T18:10:45.876Z,56.40
2018-08-24T18:15:49.000Z,56.80
2018-08-24T18:20:52.031Z,57.10
2018-08-24T18:25:55.224Z,57.40
2018-08-24T18:30:58.250Z,57.60
2018-08-24T18:36:01.603Z,57.70
2018-08-24T18:41:04.629Z,58.00
2018-08-24T18:46:07.657Z,58.20
2018-08-24T18:51:10.681Z,58.50
2018-08-24T18:56:13.818Z,58.80
2018-08-24T19:01:16.972Z,58.90
2018-08-24T19:06:20.329Z,59.10
2018-08-24T19:11:29.015Z,59.20
2018-08-24T19:16:32.035Z,59.40
2018-08-24T19:21:41.240Z,59.40
2018-08-24T19:26:44.782Z,59.60
2018-08-24T19:31:47.915Z,59.60
2018-08-24T19:36:51.083Z,59.90
2018-08-24T19:41:59.620Z,60.20
2018-08-24T19:47:02.743Z,60.80
2018-08-24T19:52:06.219Z,60.40
2018-08-24T19:57:14.668Z,60.90
2018-08-24T20:02:17.851Z,61.30
2018-08-24T20:07:26.398Z,61.60
2018-08-24T20:12:29.403Z,61.40
2018-08-24T20:17:32.528Z,61.50
2018-08-24T20:22:35.551Z,62.20
2018-08-24T20:27:38.571Z,62.70
2018-08-24T20:32:41.888Z,63.00
2018-08-24T20:37:44.896Z,63.80
2018-08-24T20:42:47.901Z,64.30
2018-08-24T20:47:50.995Z,64.50
2018-08-24T20:52:54.029Z,64.80
2018-08-24T20:57:57.069Z,64.80
2018-08-24T21:03:00.223Z,65.40
2018-08-24T21:08:03.488Z,65.30
2018-08-24T21:13:06.505Z,65.80
2018-08-24T21:18:09.540Z,66.20
2018-08-24T21:23:12.583Z,66.80
2018-08-24T21:28:15.648Z,67.00
2018-08-24T21:33:18.688Z,66.50
2018-08-24T21:38:21.708Z,65.40
2018-08-24T21:43:24.754Z,65.30
2018-08-24T21:48:27.756Z,64.90
2018-08-24T21:53:30.811Z,64.90
2018-08-24T21:58:33.852Z,64.40
2018-08-24T22:03:36.860Z,64.10
2018-08-24T22:08:39.888Z,64.00
2018-08-24T22:13:42.903Z,64.10
2018-08-24T22:18:45.940Z,63.80
2018-08-24T22:23:48.958Z,64.00
2018-08-24T22:28:51.988Z,63.60
2018-08-24T22:33:55.027Z,63.30
2018-08-24T22:38:58.043Z,62.70
2018-08-24T22:44:01.096Z,62.60
2018-08-24T22:49:04.121Z,62.40
2018-08-24T22:54:07.172Z,61.30
2018-08-24T22:59:10.212Z,61.60
2018-08-24T23:04:13.291Z,61.40
2018-08-24T23:09:16.332Z,61.40
2018-08-24T23:14:19.359Z,61.40
2018-08-24T23:19:22.424Z,62.60
2018-08-24T23:24:25.448Z,62.10
2018-08-24T23:29:28.489Z,62.50
2018-08-24T23:34:31.523Z,63.10
2018-08-24T23:39:34.548Z,63.90
2018-08-24T23:44:37.580Z,64.40
2018-08-24T23:49:40.612Z,64.30
2018-08-24T23:54:43.737Z,64.50
2018-08-24T23:59:46.767Z,64.70
